AirNav   Everest Fuels
 
 1147 users online  

8NC2 Summey Airpark
Caroleen, North Carolina, USA

GOING TO CAROLEEN?


FAA INFORMATION EFFECTIVE 05 NOVEMBER 2020

Location

FAA Identifier: 8NC2
Lat/Long: 35-17-21.4420N 081-47-06.3620W
35-17.357367N 081-47.106033W
35.2892894,-81.7851006
(estimated)
Elevation: 1000 ft. / 305 m (estimated)
Variation: 04W (1985)
From city: 2 miles SW of CAROLEEN, NC
Time zone: UTC -5 (UTC -4 during Daylight Saving Time)
Zip code: 28019

Airport Operations

Airport use: Private use. Permission required prior to landing
Activation date: 04/1991
Control tower: no
ARTCC: ATLANTA CENTER
FSS: RALEIGH FLIGHT SERVICE STATION
Attendance: UNATNDD
Wind indicator: yes
Segmented circle: no

Airport Communications

WX AWOS-3 at EHO (9 nm E): 118.425 (704-487-0100)
WX AWOS-3 at FQD (11 nm NW): 118.275 (828-287-6498)

Nearby radio navigation aids

VOR radial/distance  VOR name  Freq  Var
SPAr026/16.8SPARTANBURG VORTAC115.7002W
SUGr109/24.7SUGARLOAF MOUNTAIN VORTAC112.2002W

 
NDB name  Hdg/Dist  Freq  Var  ID
FIRST RIVER290/9.441706WSLP ... .-.. .--.
FAIRMONT028/25.324805WFRT ..-. .-. -
FIDDLERS199/25.939107WFIQ ..-. .. --.-
STONIA287/31.326006WGHJ --. .... .---
BROAD RIVER095/33.637907WBRA -... .-. .-
UNION COUNTY355/37.032606WUOT ..- --- -

Airport Services

Runway Information

Runway 14/32

Dimensions: 2500 x 120 ft. / 762 x 37 m
Surface: turf
RUNWAY 14  RUNWAY 32
Traffic pattern: leftleft
Obstructions: 50 ft. pline, 200 ft. from runwaynone

Airport Ownership and Management from official FAA records

Ownership: Privately-owned
Owner: J. CLARK SUMMEY
196 SCRUGGS ROAD
GAFFNEY, SC 29341
Phone 864-461-3888
Manager: J. CLARK SUMMEY
196 SCRUGGS ROAD
GAFFNEY, SC 29341
Phone 864-812-0482

Airport Operational Statistics

Aircraft based on the field: 2
Single engine airplanes: 2
    

Additional Remarks

FOR CD CTC ATLANTA ARTCC AT 770-210-7692.

Instrument Procedures

There are no published instrument procedures at 8NC2.

Some nearby airports with instrument procedures:

KEHO - Shelby-Cleveland County Regional Airport (9 nm E)
KFQD - Rutherford County Airport-Marchman Field (11 nm NW)
KSPA - Spartanburg Downtown Memorial Airport/Simpson Field (24 nm S)
KAKH - Gastonia Municipal Airport (32 nm E)
KGSP - Greenville Spartanburg International Airport (32 nm SW)
 
Loc | Ops | Rwys | IFR | FBO | Links
Com | Nav | Svcs | Stats | Notes
Area around 8NC2 (Summey Airpark)
 
Road maps at: MapQuest Bing Google
 
Aerial photo
WARNING: Photo may not be current or correct
Aerial photo of 8NC2 (Summey Airpark)
Taken in September 2005

Do you have a better or more recent aerial photo of Summey Airpark that you would like to share? If so, please send us your photo.

 
Sectional chart

 
Airport distance calculator
Flying to Summey Airpark? Find the distance to fly.

From to 8NC2

Sunrise and sunset
Times for 27-Nov-2020
 Local
(UTC-5)
 Zulu
(UTC)
Morning civil twilight06:4811:48
Sunrise07:1612:16
Sunset17:1422:14
Evening civil twilight17:4222:42

Current date and time
Zulu (UTC)  27-Nov-2020 16:18:46
Local (UTC-5)  27-Nov-2020 11:18:46
 
METAR
KEHO 
9nm E 
271535Z AUTO 00000KT 1/4SM FG OVC001 11/11 A3012 RMK AO2 T01130113
KFQD 
11nm NW 
271555Z AUTO 00000KT 10SM CLR 15/08 A3013 RMK AO2
KSPA 
17nm SW 
271555Z AUTO 01004KT 10SM CLR 16/06 A3012 RMK AO2
TAF
KGSP 
32nm SW 
271256Z 2713/2812 00000KT 4SM BR FEW002 FM271400 34004KT P6SM SKC FM271900 24005KT P6SM SKC FM280100 24003KT P6SM SCT250
KHKY 
34nm NE 
271412Z 2714/2812 31004KT 3SM BR BKN002 FM271500 32003KT P6SM SKC FM280200 00000KT P6SM SCT250
KAVL 
38nm W 
271155Z 2712/2812 00000KT P6SM SKC FM271400 35005KT P6SM SKC FM280200 34003KT P6SM SCT250
KGMU 
38nm SW 
271152Z 2712/2812 00000KT 3SM BR FEW001 FM271400 34004KT P6SM SKC FM271900 24005KT P6SM SKC FM280100 24003KT P6SM SCT250
NOTAMs
Click for the latest NOTAMs
NOTAMs are issued by the DoD/FAA and will open in a separate window not controlled by AirNav.

 

 
 

Would you like to see your business listed on this page?

 If your business provides an interesting product or service to pilots, flight crews, aircraft, or users of the Summey Airpark, you should consider listing it here.  To start the listing process, click on the button below
 
Add a business
 

Other Pages about Summey Airpark

Update a link
 
Copyright © AirNav, LLC. All rights reserved. Privacy Policy  Contact